sensor_id;sensor_type;location;lat;lon;timestamp;P1;durP1;ratioP1;P2;durP2;ratioP2
15968;SDS011;8085;53.472;9.794;2022-12-04T00:01:15;58.70;;;29.17;;
15968;SDS011;8085;53.472;9.794;2022-12-04T00:03:43;50.03;;;27.37;;
15968;SDS011;8085;53.472;9.794;2022-12-04T00:06:10;54.17;;;27.20;;
15968;SDS011;8085;53.472;9.794;2022-12-04T00:08:39;58.90;;;29.27;;
15968;SDS011;8085;53.472;9.794;2022-12-04T00:11:07;53.20;;;28.43;;
15968;SDS011;8085;53.472;9.794;2022-12-04T00:13:35;56.47;;;28.27;;
15968;SDS011;8085;53.472;9.794;2022-12-04T00:16:04;50.93;;;26.97;;
15968;SDS011;8085;53.472;9.794;2022-12-04T00:18:33;52.30;;;27.70;;
15968;SDS011;8085;53.472;9.794;2022-12-04T00:21:01;52.53;;;26.87;;
15968;SDS011;8085;53.472;9.794;2022-12-04T00:23:29;56.23;;;27.73;;
15968;SDS011;8085;53.472;9.794;2022-12-04T00:25:58;46.93;;;26.23;;
15968;SDS011;8085;53.472;9.794;2022-12-04T00:28:25;51.50;;;26.53;;
15968;SDS011;8085;53.472;9.794;2022-12-04T00:30:52;48.93;;;27.40;;
15968;SDS011;8085;53.472;9.794;2022-12-04T00:33:21;48.30;;;27.43;;
15968;SDS011;8085;53.472;9.794;2022-12-04T00:35:54;56.57;;;27.93;;
15968;SDS011;8085;53.472;9.794;2022-12-04T00:38:22;57.27;;;28.10;;
15968;SDS011;8085;53.472;9.794;2022-12-04T00:40:49;55.00;;;27.27;;
15968;SDS011;8085;53.472;9.794;2022-12-04T00:43:16;48.70;;;26.47;;
15968;SDS011;8085;53.472;9.794;2022-12-04T00:45:43;50.73;;;25.93;;
15968;SDS011;8085;53.472;9.794;2022-12-04T00:48:10;51.07;;;27.07;;
15968;SDS011;8085;53.472;9.794;2022-12-04T00:50:38;56.90;;;27.23;;
15968;SDS011;8085;53.472;9.794;2022-12-04T00:53:05;57.93;;;26.90;;
15968;SDS011;8085;53.472;9.794;2022-12-04T00:55:32;49.23;;;26.03;;
15968;SDS011;8085;53.472;9.794;2022-12-04T00:58:02;50.97;;;26.47;;
15968;SDS011;8085;53.472;9.794;2022-12-04T01:00:29;43.73;;;25.10;;
15968;SDS011;8085;53.472;9.794;2022-12-04T01:02:56;49.60;;;26.10;;
15968;SDS011;8085;53.472;9.794;2022-12-04T01:05:23;52.13;;;27.70;;
15968;SDS011;8085;53.472;9.794;2022-12-04T01:07:51;48.17;;;25.63;;
15968;SDS011;8085;53.472;9.794;2022-12-04T01:10:18;53.30;;;27.03;;
15968;SDS011;8085;53.472;9.794;2022-12-04T01:12:47;49.80;;;26.17;;
15968;SDS011;8085;53.472;9.794;2022-12-04T01:15:14;49.07;;;25.40;;
15968;SDS011;8085;53.472;9.794;2022-12-04T01:17:41;54.33;;;25.40;;
15968;SDS011;8085;53.472;9.794;2022-12-04T01:20:10;46.43;;;25.57;;
15968;SDS011;8085;53.472;9.794;2022-12-04T01:22:37;48.07;;;24.87;;
15968;SDS011;8085;53.472;9.794;2022-12-04T01:25:06;46.80;;;23.90;;
15968;SDS011;8085;53.472;9.794;2022-12-04T01:27:34;44.53;;;24.90;;
15968;SDS011;8085;53.472;9.794;2022-12-04T01:30:00;43.27;;;23.83;;
15968;SDS011;8085;53.472;9.794;2022-12-04T01:32:28;44.53;;;24.97;;
15968;SDS011;8085;53.472;9.794;2022-12-04T01:34:55;42.57;;;23.20;;
15968;SDS011;8085;53.472;9.794;2022-12-04T01:37:22;43.43;;;23.70;;
15968;SDS011;8085;53.472;9.794;2022-12-04T01:39:48;44.13;;;23.83;;
15968;SDS011;8085;53.472;9.794;2022-12-04T01:42:17;42.10;;;24.50;;
15968;SDS011;8085;53.472;9.794;2022-12-04T01:44:44;47.00;;;24.57;;
15968;SDS011;8085;53.472;9.794;2022-12-04T01:48:00;43.63;;;24.13;;
15968;SDS011;8085;53.472;9.794;2022-12-04T01:50:34;41.13;;;22.90;;
15968;SDS011;8085;53.472;9.794;2022-12-04T01:53:01;46.03;;;23.13;;
15968;SDS011;8085;53.472;9.794;2022-12-04T01:55:28;41.93;;;23.13;;
15968;SDS011;8085;53.472;9.794;2022-12-04T01:57:57;42.63;;;23.30;;
15968;SDS011;8085;53.472;9.794;2022-12-04T02:00:26;46.70;;;23.40;;
15968;SDS011;8085;53.472;9.794;2022-12-04T02:02:53;46.63;;;24.80;;
15968;SDS011;8085;53.472;9.794;2022-12-04T02:05:20;39.87;;;22.20;;
15968;SDS011;8085;53.472;9.794;2022-12-04T02:07:48;43.37;;;22.97;;
15968;SDS011;8085;53.472;9.794;2022-12-04T02:10:17;43.63;;;24.03;;
15968;SDS011;8085;53.472;9.794;2022-12-04T02:12:50;44.30;;;24.50;;
15968;SDS011;8085;53.472;9.794;2022-12-04T02:15:26;42.87;;;23.90;;
15968;SDS011;8085;53.472;9.794;2022-12-04T02:18:00;43.67;;;24.20;;
15968;SDS011;8085;53.472;9.794;2022-12-04T02:20:32;46.67;;;24.33;;
15968;SDS011;8085;53.472;9.794;2022-12-04T02:23:12;49.70;;;25.67;;
15968;SDS011;8085;53.472;9.794;2022-12-04T02:26:04;51.33;;;26.23;;
15968;SDS011;8085;53.472;9.794;2022-12-04T02:28:46;50.93;;;26.60;;
15968;SDS011;8085;53.472;9.794;2022-12-04T02:31:17;53.40;;;27.93;;
15968;SDS011;8085;53.472;9.794;2022-12-04T02:33:47;55.27;;;28.07;;
15968;SDS011;8085;53.472;9.794;2022-12-04T02:36:19;63.53;;;30.23;;
15968;SDS011;8085;53.472;9.794;2022-12-04T02:38:49;57.03;;;30.13;;
15968;SDS011;8085;53.472;9.794;2022-12-04T02:41:20;53.87;;;29.27;;
15968;SDS011;8085;53.472;9.794;2022-12-04T02:43:54;57.57;;;30.40;;
15968;SDS011;8085;53.472;9.794;2022-12-04T02:46:25;51.50;;;27.13;;
15968;SDS011;8085;53.472;9.794;2022-12-04T02:48:56;48.17;;;25.47;;
15968;SDS011;8085;53.472;9.794;2022-12-04T02:51:25;47.07;;;25.97;;
15968;SDS011;8085;53.472;9.794;2022-12-04T02:53:57;48.97;;;26.13;;
15968;SDS011;8085;53.472;9.794;2022-12-04T02:56:30;52.37;;;25.43;;
15968;SDS011;8085;53.472;9.794;2022-12-04T02:59:03;49.63;;;26.43;;
15968;SDS011;8085;53.472;9.794;2022-12-04T03:01:33;48.70;;;25.43;;
15968;SDS011;8085;53.472;9.794;2022-12-04T03:04:04;54.17;;;26.93;;
15968;SDS011;8085;53.472;9.794;2022-12-04T03:06:36;50.97;;;25.03;;
15968;SDS011;8085;53.472;9.794;2022-12-04T03:09:09;50.87;;;25.10;;
15968;SDS011;8085;53.472;9.794;2022-12-04T03:11:39;48.93;;;24.50;;
15968;SDS011;8085;53.472;9.794;2022-12-04T03:14:12;49.40;;;25.10;;
15968;SDS011;8085;53.472;9.794;2022-12-04T03:16:42;46.80;;;25.07;;
15968;SDS011;8085;53.472;9.794;2022-12-04T03:19:11;45.47;;;24.37;;
15968;SDS011;8085;53.472;9.794;2022-12-04T03:21:43;47.23;;;23.03;;
15968;SDS011;8085;53.472;9.794;2022-12-04T03:24:16;45.37;;;23.90;;
15968;SDS011;8085;53.472;9.794;2022-12-04T03:26:45;46.70;;;24.23;;
15968;SDS011;8085;53.472;9.794;2022-12-04T03:29:17;39.47;;;22.57;;
15968;SDS011;8085;53.472;9.794;2022-12-04T03:31:48;45.37;;;24.50;;
15968;SDS011;8085;53.472;9.794;2022-12-04T03:34:20;44.57;;;23.33;;
15968;SDS011;8085;53.472;9.794;2022-12-04T03:36:54;44.50;;;23.67;;
15968;SDS011;8085;53.472;9.794;2022-12-04T03:39:25;42.60;;;23.23;;
15968;SDS011;8085;53.472;9.794;2022-12-04T03:41:56;45.23;;;23.47;;
15968;SDS011;8085;53.472;9.794;2022-12-04T03:44:30;42.57;;;23.50;;
15968;SDS011;8085;53.472;9.794;2022-12-04T03:47:05;48.23;;;23.93;;
15968;SDS011;8085;53.472;9.794;2022-12-04T03:49:38;40.07;;;23.10;;
15968;SDS011;8085;53.472;9.794;2022-12-04T03:52:10;43.60;;;23.97;;
15968;SDS011;8085;53.472;9.794;2022-12-04T03:54:42;46.20;;;22.33;;
15968;SDS011;8085;53.472;9.794;2022-12-04T03:57:14;42.37;;;23.37;;
15968;SDS011;8085;53.472;9.794;2022-12-04T03:59:47;44.63;;;23.00;;
15968;SDS011;8085;53.472;9.794;2022-12-04T04:02:18;50.13;;;24.20;;
15968;SDS011;8085;53.472;9.794;2022-12-04T04:04:48;43.97;;;23.83;;
15968;SDS011;8085;53.472;9.794;2022-12-04T04:07:21;48.70;;;23.97;;
15968;SDS011;8085;53.472;9.794;2022-12-04T04:09:55;44.47;;;24.00;;
15968;SDS011;8085;53.472;9.794;2022-12-04T04:12:27;43.83;;;23.67;;
15968;SDS011;8085;53.472;9.794;2022-12-04T04:15:00;52.17;;;25.20;;
15968;SDS011;8085;53.472;9.794;2022-12-04T04:17:48;42.20;;;23.40;;
15968;SDS011;8085;53.472;9.794;2022-12-04T04:20:35;49.47;;;24.37;;
15968;SDS011;8085;53.472;9.794;2022-12-04T04:23:23;49.33;;;24.60;;
15968;SDS011;8085;53.472;9.794;2022-12-04T04:26:09;47.97;;;24.17;;
15968;SDS011;8085;53.472;9.794;2022-12-04T04:28:38;45.10;;;23.63;;
15968;SDS011;8085;53.472;9.794;2022-12-04T04:31:09;50.67;;;26.10;;
15968;SDS011;8085;53.472;9.794;2022-12-04T04:33:44;49.80;;;23.97;;
15968;SDS011;8085;53.472;9.794;2022-12-04T04:36:17;49.43;;;24.73;;
15968;SDS011;8085;53.472;9.794;2022-12-04T04:38:51;48.47;;;24.63;;
15968;SDS011;8085;53.472;9.794;2022-12-04T04:41:26;47.53;;;23.67;;
15968;SDS011;8085;53.472;9.794;2022-12-04T04:44:02;44.97;;;25.03;;
15968;SDS011;8085;53.472;9.794;2022-12-04T04:46:37;45.80;;;23.80;;
15968;SDS011;8085;53.472;9.794;2022-12-04T04:49:09;51.03;;;24.53;;
15968;SDS011;8085;53.472;9.794;2022-12-04T04:51:38;48.03;;;23.60;;
15968;SDS011;8085;53.472;9.794;2022-12-04T04:54:06;47.30;;;23.77;;
15968;SDS011;8085;53.472;9.794;2022-12-04T04:56:40;48.77;;;24.37;;
15968;SDS011;8085;53.472;9.794;2022-12-04T04:59:08;50.93;;;24.50;;
15968;SDS011;8085;53.472;9.794;2022-12-04T05:01:36;52.40;;;25.10;;
15968;SDS011;8085;53.472;9.794;2022-12-04T05:04:05;47.60;;;24.57;;
15968;SDS011;8085;53.472;9.794;2022-12-04T05:06:32;46.53;;;23.80;;
15968;SDS011;8085;53.472;9.794;2022-12-04T05:08:59;48.93;;;25.33;;
15968;SDS011;8085;53.472;9.794;2022-12-04T05:11:26;45.40;;;24.37;;
15968;SDS011;8085;53.472;9.794;2022-12-04T05:13:53;44.10;;;22.83;;
15968;SDS011;8085;53.472;9.794;2022-12-04T05:16:20;49.97;;;23.67;;
15968;SDS011;8085;53.472;9.794;2022-12-04T05:18:48;50.70;;;24.57;;
15968;SDS011;8085;53.472;9.794;2022-12-04T05:21:29;48.50;;;23.80;;
15968;SDS011;8085;53.472;9.794;2022-12-04T05:23:58;49.90;;;25.57;;
15968;SDS011;8085;53.472;9.794;2022-12-04T05:26:25;46.47;;;23.60;;
15968;SDS011;8085;53.472;9.794;2022-12-04T05:28:52;46.27;;;24.77;;
15968;SDS011;8085;53.472;9.794;2022-12-04T05:31:18;53.73;;;24.93;;
15968;SDS011;8085;53.472;9.794;2022-12-04T05:33:45;51.20;;;25.10;;
15968;SDS011;8085;53.472;9.794;2022-12-04T05:36:13;46.37;;;24.20;;
15968;SDS011;8085;53.472;9.794;2022-12-04T05:38:40;50.23;;;24.80;;
15968;SDS011;8085;53.472;9.794;2022-12-04T05:41:07;46.53;;;23.37;;
15968;SDS011;8085;53.472;9.794;2022-12-04T05:43:34;44.47;;;23.67;;
15968;SDS011;8085;53.472;9.794;2022-12-04T05:46:02;44.30;;;23.70;;
15968;SDS011;8085;53.472;9.794;2022-12-04T05:48:30;47.20;;;24.47;;
15968;SDS011;8085;53.472;9.794;2022-12-04T05:51:00;50.70;;;24.50;;
15968;SDS011;8085;53.472;9.794;2022-12-04T05:53:29;47.93;;;24.77;;
15968;SDS011;8085;53.472;9.794;2022-12-04T05:55:57;44.60;;;24.17;;
15968;SDS011;8085;53.472;9.794;2022-12-04T05:58:25;49.40;;;25.07;;
15968;SDS011;8085;53.472;9.794;2022-12-04T06:00:53;52.17;;;24.87;;
15968;SDS011;8085;53.472;9.794;2022-12-04T06:03:20;45.23;;;23.93;;
15968;SDS011;8085;53.472;9.794;2022-12-04T06:05:47;47.33;;;24.33;;
15968;SDS011;8085;53.472;9.794;2022-12-04T06:08:15;46.10;;;24.40;;
15968;SDS011;8085;53.472;9.794;2022-12-04T06:10:42;45.50;;;23.20;;
15968;SDS011;8085;53.472;9.794;2022-12-04T06:13:09;45.00;;;23.30;;
15968;SDS011;8085;53.472;9.794;2022-12-04T06:15:37;46.17;;;23.70;;
15968;SDS011;8085;53.472;9.794;2022-12-04T06:18:04;50.00;;;25.97;;
15968;SDS011;8085;53.472;9.794;2022-12-04T06:20:31;48.13;;;24.33;;
15968;SDS011;8085;53.472;9.794;2022-12-04T06:22:58;47.97;;;23.90;;
15968;SDS011;8085;53.472;9.794;2022-12-04T06:25:27;46.53;;;24.43;;
15968;SDS011;8085;53.472;9.794;2022-12-04T06:27:54;44.80;;;23.87;;
15968;SDS011;8085;53.472;9.794;2022-12-04T06:30:20;48.13;;;24.47;;
15968;SDS011;8085;53.472;9.794;2022-12-04T06:32:47;49.30;;;25.53;;
15968;SDS011;8085;53.472;9.794;2022-12-04T06:35:14;51.77;;;26.13;;
15968;SDS011;8085;53.472;9.794;2022-12-04T06:37:41;44.77;;;24.17;;
15968;SDS011;8085;53.472;9.794;2022-12-04T06:40:08;46.00;;;24.73;;
15968;SDS011;8085;53.472;9.794;2022-12-04T06:42:37;50.23;;;24.67;;
15968;SDS011;8085;53.472;9.794;2022-12-04T06:45:04;48.83;;;25.70;;
15968;SDS011;8085;53.472;9.794;2022-12-04T06:47:32;46.70;;;25.53;;
15968;SDS011;8085;53.472;9.794;2022-12-04T06:50:00;45.00;;;23.53;;
15968;SDS011;8085;53.472;9.794;2022-12-04T06:52:27;49.30;;;25.93;;
15968;SDS011;8085;53.472;9.794;2022-12-04T06:54:54;44.43;;;23.83;;
15968;SDS011;8085;53.472;9.794;2022-12-04T06:57:20;49.33;;;24.83;;
15968;SDS011;8085;53.472;9.794;2022-12-04T06:59:49;45.03;;;23.73;;
15968;SDS011;8085;53.472;9.794;2022-12-04T07:02:15;48.00;;;24.63;;
15968;SDS011;8085;53.472;9.794;2022-12-04T07:04:42;44.67;;;24.30;;
15968;SDS011;8085;53.472;9.794;2022-12-04T07:07:09;44.27;;;24.03;;
15968;SDS011;8085;53.472;9.794;2022-12-04T07:09:36;49.63;;;24.77;;
15968;SDS011;8085;53.472;9.794;2022-12-04T07:12:03;47.50;;;24.13;;
15968;SDS011;8085;53.472;9.794;2022-12-04T07:14:31;49.10;;;24.87;;
15968;SDS011;8085;53.472;9.794;2022-12-04T07:16:59;55.43;;;24.63;;
15968;SDS011;8085;53.472;9.794;2022-12-04T07:19:26;50.87;;;24.33;;
15968;SDS011;8085;53.472;9.794;2022-12-04T07:21:53;47.57;;;24.30;;
15968;SDS011;8085;53.472;9.794;2022-12-04T07:24:19;47.57;;;22.63;;
15968;SDS011;8085;53.472;9.794;2022-12-04T07:26:46;47.97;;;24.67;;
15968;SDS011;8085;53.472;9.794;2022-12-04T07:29:13;50.17;;;25.33;;
15968;SDS011;8085;53.472;9.794;2022-12-04T07:31:40;48.73;;;24.37;;
15968;SDS011;8085;53.472;9.794;2022-12-04T07:34:09;49.33;;;23.63;;
15968;SDS011;8085;53.472;9.794;2022-12-04T07:36:37;57.60;;;27.67;;
15968;SDS011;8085;53.472;9.794;2022-12-04T07:39:04;49.83;;;24.83;;
15968;SDS011;8085;53.472;9.794;2022-12-04T07:41:31;48.93;;;24.80;;
15968;SDS011;8085;53.472;9.794;2022-12-04T07:43:58;48.20;;;24.47;;
15968;SDS011;8085;53.472;9.794;2022-12-04T07:46:25;52.50;;;25.10;;
15968;SDS011;8085;53.472;9.794;2022-12-04T07:48:53;51.50;;;25.73;;
15968;SDS011;8085;53.472;9.794;2022-12-04T07:51:23;51.10;;;25.53;;
15968;SDS011;8085;53.472;9.794;2022-12-04T07:53:51;52.33;;;25.00;;
15968;SDS011;8085;53.472;9.794;2022-12-04T07:56:19;48.20;;;24.70;;
15968;SDS011;8085;53.472;9.794;2022-12-04T07:58:46;50.27;;;25.87;;
15968;SDS011;8085;53.472;9.794;2022-12-04T08:01:14;48.33;;;25.33;;
15968;SDS011;8085;53.472;9.794;2022-12-04T08:03:43;54.83;;;25.87;;
15968;SDS011;8085;53.472;9.794;2022-12-04T08:06:11;52.70;;;26.63;;
15968;SDS011;8085;53.472;9.794;2022-12-04T08:08:39;56.10;;;25.40;;
15968;SDS011;8085;53.472;9.794;2022-12-04T08:11:06;52.77;;;25.97;;
15968;SDS011;8085;53.472;9.794;2022-12-04T08:13:34;55.20;;;26.87;;
15968;SDS011;8085;53.472;9.794;2022-12-04T08:16:01;57.10;;;26.43;;
15968;SDS011;8085;53.472;9.794;2022-12-04T08:18:28;52.00;;;26.20;;
15968;SDS011;8085;53.472;9.794;2022-12-04T08:21:01;54.50;;;25.73;;
15968;SDS011;8085;53.472;9.794;2022-12-04T08:23:28;59.80;;;27.97;;
15968;SDS011;8085;53.472;9.794;2022-12-04T08:25:58;56.03;;;27.53;;
15968;SDS011;8085;53.472;9.794;2022-12-04T08:28:25;63.37;;;27.30;;
15968;SDS011;8085;53.472;9.794;2022-12-04T08:30:52;51.03;;;26.43;;
15968;SDS011;8085;53.472;9.794;2022-12-04T08:33:19;50.50;;;26.27;;
15968;SDS011;8085;53.472;9.794;2022-12-04T08:35:46;58.00;;;27.73;;
15968;SDS011;8085;53.472;9.794;2022-12-04T08:38:13;58.67;;;27.63;;
15968;SDS011;8085;53.472;9.794;2022-12-04T08:40:40;51.93;;;26.13;;
15968;SDS011;8085;53.472;9.794;2022-12-04T08:43:08;53.53;;;26.83;;
15968;SDS011;8085;53.472;9.794;2022-12-04T08:45:35;49.67;;;26.57;;
15968;SDS011;8085;53.472;9.794;2022-12-04T08:48:01;61.47;;;28.03;;
15968;SDS011;8085;53.472;9.794;2022-12-04T08:50:28;59.87;;;27.17;;
15968;SDS011;8085;53.472;9.794;2022-12-04T08:52:55;52.53;;;26.67;;
15968;SDS011;8085;53.472;9.794;2022-12-04T08:55:22;56.20;;;26.93;;
15968;SDS011;8085;53.472;9.794;2022-12-04T08:57:49;60.10;;;27.80;;
15968;SDS011;8085;53.472;9.794;2022-12-04T09:00:18;58.33;;;28.50;;
15968;SDS011;8085;53.472;9.794;2022-12-04T09:02:47;59.63;;;28.70;;
15968;SDS011;8085;53.472;9.794;2022-12-04T09:05:14;58.77;;;28.07;;
15968;SDS011;8085;53.472;9.794;2022-12-04T09:07:41;56.97;;;28.87;;
15968;SDS011;8085;53.472;9.794;2022-12-04T09:10:08;53.70;;;26.20;;
15968;SDS011;8085;53.472;9.794;2022-12-04T09:12:36;54.50;;;26.17;;
15968;SDS011;8085;53.472;9.794;2022-12-04T09:15:03;57.97;;;27.63;;
15968;SDS011;8085;53.472;9.794;2022-12-04T09:17:32;53.70;;;27.13;;
15968;SDS011;8085;53.472;9.794;2022-12-04T09:20:00;56.87;;;26.17;;
15968;SDS011;8085;53.472;9.794;2022-12-04T09:22:28;53.70;;;27.17;;
15968;SDS011;8085;53.472;9.794;2022-12-04T09:24:55;60.60;;;28.33;;
15968;SDS011;8085;53.472;9.794;2022-12-04T09:27:22;49.10;;;26.27;;
15968;SDS011;8085;53.472;9.794;2022-12-04T09:29:48;53.93;;;25.10;;
15968;SDS011;8085;53.472;9.794;2022-12-04T09:32:15;56.47;;;26.50;;
15968;SDS011;8085;53.472;9.794;2022-12-04T09:34:44;53.93;;;26.67;;
15968;SDS011;8085;53.472;9.794;2022-12-04T09:37:12;54.67;;;26.17;;
15968;SDS011;8085;53.472;9.794;2022-12-04T09:39:39;56.20;;;26.63;;
15968;SDS011;8085;53.472;9.794;2022-12-04T09:42:14;49.73;;;25.20;;
15968;SDS011;8085;53.472;9.794;2022-12-04T09:44:57;56.10;;;26.13;;
15968;SDS011;8085;53.472;9.794;2022-12-04T09:47:28;53.97;;;25.80;;
15968;SDS011;8085;53.472;9.794;2022-12-04T09:50:02;52.47;;;24.33;;
15968;SDS011;8085;53.472;9.794;2022-12-04T09:52:39;51.93;;;25.77;;
15968;SDS011;8085;53.472;9.794;2022-12-04T09:55:13;53.33;;;24.80;;
15968;SDS011;8085;53.472;9.794;2022-12-04T09:57:46;54.73;;;25.70;;
15968;SDS011;8085;53.472;9.794;2022-12-04T10:00:16;52.10;;;24.17;;
15968;SDS011;8085;53.472;9.794;2022-12-04T10:02:44;50.27;;;24.77;;
15968;SDS011;8085;53.472;9.794;2022-12-04T10:05:18;50.13;;;24.87;;
15968;SDS011;8085;53.472;9.794;2022-12-04T10:07:53;50.60;;;24.83;;
15968;SDS011;8085;53.472;9.794;2022-12-04T10:10:30;49.27;;;24.30;;
15968;SDS011;8085;53.472;9.794;2022-12-04T10:13:04;43.70;;;23.33;;
15968;SDS011;8085;53.472;9.794;2022-12-04T10:15:42;48.90;;;23.43;;
15968;SDS011;8085;53.472;9.794;2022-12-04T10:18:18;41.13;;;22.23;;
15968;SDS011;8085;53.472;9.794;2022-12-04T10:20:56;42.00;;;22.17;;
15968;SDS011;8085;53.472;9.794;2022-12-04T10:23:47;39.90;;;21.20;;
15968;SDS011;8085;53.472;9.794;2022-12-04T10:26:21;34.67;;;20.00;;
15968;SDS011;8085;53.472;9.794;2022-12-04T10:29:06;44.00;;;21.53;;
15968;SDS011;8085;53.472;9.794;2022-12-04T10:31:37;40.77;;;21.23;;
15968;SDS011;8085;53.472;9.794;2022-12-04T10:34:06;42.97;;;23.63;;
15968;SDS011;8085;53.472;9.794;2022-12-04T10:36:41;43.93;;;21.13;;
15968;SDS011;8085;53.472;9.794;2022-12-04T10:39:13;61.77;;;30.23;;
15968;SDS011;8085;53.472;9.794;2022-12-04T10:41:47;56.77;;;28.47;;
15968;SDS011;8085;53.472;9.794;2022-12-04T10:44:19;49.10;;;23.73;;
15968;SDS011;8085;53.472;9.794;2022-12-04T10:46:46;58.70;;;29.23;;
15968;SDS011;8085;53.472;9.794;2022-12-04T10:49:16;43.63;;;23.80;;
15968;SDS011;8085;53.472;9.794;2022-12-04T10:51:46;44.37;;;21.83;;
15968;SDS011;8085;53.472;9.794;2022-12-04T10:54:15;40.23;;;20.30;;
15968;SDS011;8085;53.472;9.794;2022-12-04T10:56:50;38.27;;;19.60;;
15968;SDS011;8085;53.472;9.794;2022-12-04T10:59:18;37.43;;;19.13;;
15968;SDS011;8085;53.472;9.794;2022-12-04T11:01:45;36.20;;;19.60;;
15968;SDS011;8085;53.472;9.794;2022-12-04T11:04:18;34.33;;;19.30;;
15968;SDS011;8085;53.472;9.794;2022-12-04T11:06:49;33.90;;;18.50;;
15968;SDS011;8085;53.472;9.794;2022-12-04T11:09:20;41.27;;;20.73;;
15968;SDS011;8085;53.472;9.794;2022-12-04T11:11:49;36.20;;;19.53;;
15968;SDS011;8085;53.472;9.794;2022-12-04T11:14:18;34.90;;;18.57;;
15968;SDS011;8085;53.472;9.794;2022-12-04T11:16:47;35.17;;;19.63;;
15968;SDS011;8085;53.472;9.794;2022-12-04T11:19:20;34.17;;;19.00;;
15968;SDS011;8085;53.472;9.794;2022-12-04T11:21:49;43.50;;;20.53;;
15968;SDS011;8085;53.472;9.794;2022-12-04T11:24:19;38.37;;;20.77;;
15968;SDS011;8085;53.472;9.794;2022-12-04T11:26:48;35.30;;;18.77;;
15968;SDS011;8085;53.472;9.794;2022-12-04T11:29:16;40.27;;;19.80;;
15968;SDS011;8085;53.472;9.794;2022-12-04T11:31:48;41.10;;;19.80;;
15968;SDS011;8085;53.472;9.794;2022-12-04T11:34:17;36.03;;;18.73;;
15968;SDS011;8085;53.472;9.794;2022-12-04T11:36:48;36.43;;;19.37;;
15968;SDS011;8085;53.472;9.794;2022-12-04T11:39:19;38.17;;;21.13;;
15968;SDS011;8085;53.472;9.794;2022-12-04T11:42:00;37.37;;;19.33;;
15968;SDS011;8085;53.472;9.794;2022-12-04T11:44:30;37.17;;;20.17;;
15968;SDS011;8085;53.472;9.794;2022-12-04T11:46:59;36.10;;;19.40;;
15968;SDS011;8085;53.472;9.794;2022-12-04T11:49:27;40.17;;;20.73;;
15968;SDS011;8085;53.472;9.794;2022-12-04T11:52:00;34.50;;;19.23;;
15968;SDS011;8085;53.472;9.794;2022-12-04T11:54:39;36.73;;;19.37;;
15968;SDS011;8085;53.472;9.794;2022-12-04T11:57:21;34.27;;;19.43;;
15968;SDS011;8085;53.472;9.794;2022-12-04T11:59:59;37.40;;;20.43;;
15968;SDS011;8085;53.472;9.794;2022-12-04T12:02:38;37.40;;;20.80;;
15968;SDS011;8085;53.472;9.794;2022-12-04T12:08:21;37.27;;;19.77;;
15968;SDS011;8085;53.472;9.794;2022-12-04T12:10:56;35.73;;;19.47;;
15968;SDS011;8085;53.472;9.794;2022-12-04T12:13:31;37.40;;;20.57;;
15968;SDS011;8085;53.472;9.794;2022-12-04T12:16:06;39.80;;;21.30;;
15968;SDS011;8085;53.472;9.794;2022-12-04T12:18:41;37.13;;;20.23;;
15968;SDS011;8085;53.472;9.794;2022-12-04T12:21:30;35.40;;;19.87;;
15968;SDS011;8085;53.472;9.794;2022-12-04T12:24:08;39.57;;;20.47;;
15968;SDS011;8085;53.472;9.794;2022-12-04T12:26:44;38.10;;;21.53;;
15968;SDS011;8085;53.472;9.794;2022-12-04T12:29:31;41.33;;;22.33;;
15968;SDS011;8085;53.472;9.794;2022-12-04T12:32:09;36.67;;;20.77;;
15968;SDS011;8085;53.472;9.794;2022-12-04T12:34:48;37.37;;;20.70;;
15968;SDS011;8085;53.472;9.794;2022-12-04T12:37:17;37.67;;;21.17;;
15968;SDS011;8085;53.472;9.794;2022-12-04T12:39:52;45.67;;;21.00;;
15968;SDS011;8085;53.472;9.794;2022-12-04T12:42:25;43.23;;;21.07;;
15968;SDS011;8085;53.472;9.794;2022-12-04T12:44:59;35.37;;;20.53;;
15968;SDS011;8085;53.472;9.794;2022-12-04T12:47:33;38.30;;;20.23;;
15968;SDS011;8085;53.472;9.794;2022-12-04T12:50:05;36.70;;;20.33;;
15968;SDS011;8085;53.472;9.794;2022-12-04T12:52:40;38.20;;;20.67;;
15968;SDS011;8085;53.472;9.794;2022-12-04T12:55:13;34.37;;;20.33;;
15968;SDS011;8085;53.472;9.794;2022-12-04T12:57:45;32.60;;;20.17;;
15968;SDS011;8085;53.472;9.794;2022-12-04T13:00:18;37.70;;;20.93;;
15968;SDS011;8085;53.472;9.794;2022-12-04T13:02:48;34.83;;;18.73;;
15968;SDS011;8085;53.472;9.794;2022-12-04T13:05:23;40.97;;;21.07;;
15968;SDS011;8085;53.472;9.794;2022-12-04T13:07:53;35.67;;;19.87;;
15968;SDS011;8085;53.472;9.794;2022-12-04T13:10:29;37.23;;;19.83;;
15968;SDS011;8085;53.472;9.794;2022-12-04T13:12:59;40.97;;;20.50;;
15968;SDS011;8085;53.472;9.794;2022-12-04T13:15:31;38.27;;;20.67;;
15968;SDS011;8085;53.472;9.794;2022-12-04T13:18:04;33.10;;;18.83;;
15968;SDS011;8085;53.472;9.794;2022-12-04T13:20:33;37.07;;;19.40;;
15968;SDS011;8085;53.472;9.794;2022-12-04T13:23:13;35.97;;;19.40;;
15968;SDS011;8085;53.472;9.794;2022-12-04T13:25:53;33.30;;;18.83;;
15968;SDS011;8085;53.472;9.794;2022-12-04T13:28:30;35.20;;;19.17;;
15968;SDS011;8085;53.472;9.794;2022-12-04T13:31:12;36.30;;;19.17;;
15968;SDS011;8085;53.472;9.794;2022-12-04T13:33:52;39.67;;;20.83;;
15968;SDS011;8085;53.472;9.794;2022-12-04T13:39:39;33.67;;;18.80;;
15968;SDS011;8085;53.472;9.794;2022-12-04T13:42:42;34.57;;;20.03;;
15968;SDS011;8085;53.472;9.794;2022-12-04T13:45:11;35.77;;;19.83;;
15968;SDS011;8085;53.472;9.794;2022-12-04T13:47:54;37.83;;;19.93;;
15968;SDS011;8085;53.472;9.794;2022-12-04T13:50:26;35.20;;;18.97;;
15968;SDS011;8085;53.472;9.794;2022-12-04T13:52:55;36.40;;;19.13;;
15968;SDS011;8085;53.472;9.794;2022-12-04T13:55:23;35.13;;;19.17;;
15968;SDS011;8085;53.472;9.794;2022-12-04T13:57:54;33.33;;;19.13;;
15968;SDS011;8085;53.472;9.794;2022-12-04T14:00:23;35.80;;;19.23;;
15968;SDS011;8085;53.472;9.794;2022-12-04T14:02:56;37.37;;;20.37;;
15968;SDS011;8085;53.472;9.794;2022-12-04T14:05:25;33.53;;;18.83;;
15968;SDS011;8085;53.472;9.794;2022-12-04T14:08:05;33.47;;;18.63;;
15968;SDS011;8085;53.472;9.794;2022-12-04T14:10:43;31.83;;;19.33;;
15968;SDS011;8085;53.472;9.794;2022-12-04T14:13:16;34.80;;;20.13;;
15968;SDS011;8085;53.472;9.794;2022-12-04T14:15:46;35.57;;;19.80;;
15968;SDS011;8085;53.472;9.794;2022-12-04T14:18:16;33.90;;;19.20;;
15968;SDS011;8085;53.472;9.794;2022-12-04T14:20:56;30.67;;;19.07;;
15968;SDS011;8085;53.472;9.794;2022-12-04T14:23:26;40.83;;;20.53;;
15968;SDS011;8085;53.472;9.794;2022-12-04T14:26:01;31.93;;;18.83;;
15968;SDS011;8085;53.472;9.794;2022-12-04T14:28:38;35.57;;;19.40;;
15968;SDS011;8085;53.472;9.794;2022-12-04T14:31:12;35.40;;;19.50;;
15968;SDS011;8085;53.472;9.794;2022-12-04T14:33:46;34.93;;;19.80;;
15968;SDS011;8085;53.472;9.794;2022-12-04T14:36:17;38.57;;;19.93;;
15968;SDS011;8085;53.472;9.794;2022-12-04T14:38:49;36.47;;;20.97;;
15968;SDS011;8085;53.472;9.794;2022-12-04T14:41:25;35.20;;;20.53;;
15968;SDS011;8085;53.472;9.794;2022-12-04T14:43:53;37.77;;;20.93;;
15968;SDS011;8085;53.472;9.794;2022-12-04T14:46:24;37.93;;;21.07;;
15968;SDS011;8085;53.472;9.794;2022-12-04T14:48:58;37.07;;;20.17;;
15968;SDS011;8085;53.472;9.794;2022-12-04T14:51:32;33.40;;;20.03;;
15968;SDS011;8085;53.472;9.794;2022-12-04T14:54:05;37.97;;;20.37;;
15968;SDS011;8085;53.472;9.794;2022-12-04T14:56:43;40.53;;;21.23;;
15968;SDS011;8085;53.472;9.794;2022-12-04T14:59:19;38.77;;;22.23;;
15968;SDS011;8085;53.472;9.794;2022-12-04T15:01:49;37.17;;;20.40;;